sensor_id;sensor_type;location;lat;lon;timestamp;temperature;humidity
19254;DHT22;9761;50.926;5.330;2022-11-24T00:00:17;8.80;99.90
19254;DHT22;9761;50.926;5.330;2022-11-24T00:02:44;8.80;99.90
19254;DHT22;9761;50.926;5.330;2022-11-24T00:05:12;8.80;99.90
19254;DHT22;9761;50.926;5.330;2022-11-24T00:07:39;8.80;99.90
19254;DHT22;9761;50.926;5.330;2022-11-24T00:10:06;8.80;99.90
19254;DHT22;9761;50.926;5.330;2022-11-24T00:12:33;8.90;99.90
19254;DHT22;9761;50.926;5.330;2022-11-24T00:15:01;8.90;99.90
19254;DHT22;9761;50.926;5.330;2022-11-24T00:17:28;8.80;99.90
19254;DHT22;9761;50.926;5.330;2022-11-24T00:19:55;8.80;99.90
19254;DHT22;9761;50.926;5.330;2022-11-24T00:22:23;8.80;99.90
19254;DHT22;9761;50.926;5.330;2022-11-24T00:24:50;8.70;99.90
19254;DHT22;9761;50.926;5.330;2022-11-24T00:27:17;8.70;99.90
19254;DHT22;9761;50.926;5.330;2022-11-24T00:29:44;8.70;99.90
19254;DHT22;9761;50.926;5.330;2022-11-24T00:32:11;8.70;99.90
19254;DHT22;9761;50.926;5.330;2022-11-24T00:34:38;8.70;99.90
19254;DHT22;9761;50.926;5.330;2022-11-24T00:37:06;8.70;99.90
19254;DHT22;9761;50.926;5.330;2022-11-24T00:39:35;8.70;99.90
19254;DHT22;9761;50.926;5.330;2022-11-24T00:42:02;8.70;99.90
19254;DHT22;9761;50.926;5.330;2022-11-24T00:44:29;8.70;99.90
19254;DHT22;9761;50.926;5.330;2022-11-24T00:46:55;8.80;99.90
19254;DHT22;9761;50.926;5.330;2022-11-24T00:49:23;8.90;99.90
19254;DHT22;9761;50.926;5.330;2022-11-24T00:51:50;8.90;99.90
19254;DHT22;9761;50.926;5.330;2022-11-24T00:54:17;8.90;99.90
19254;DHT22;9761;50.926;5.330;2022-11-24T00:56:47;8.90;99.90
19254;DHT22;9761;50.926;5.330;2022-11-24T00:59:14;8.90;99.90
19254;DHT22;9761;50.926;5.330;2022-11-24T01:01:41;8.90;99.90
19254;DHT22;9761;50.926;5.330;2022-11-24T01:04:08;8.90;99.90
19254;DHT22;9761;50.926;5.330;2022-11-24T01:06:35;8.90;99.90
19254;DHT22;9761;50.926;5.330;2022-11-24T01:09:03;8.90;99.90
19254;DHT22;9761;50.926;5.330;2022-11-24T01:11:31;8.90;99.90
19254;DHT22;9761;50.926;5.330;2022-11-24T01:14:22;8.90;99.90
19254;DHT22;9761;50.926;5.330;2022-11-24T01:16:49;8.90;99.90
19254;DHT22;9761;50.926;5.330;2022-11-24T01:19:17;8.80;99.90
19254;DHT22;9761;50.926;5.330;2022-11-24T01:21:44;8.80;99.90
19254;DHT22;9761;50.926;5.330;2022-11-24T01:24:12;8.80;99.90
19254;DHT22;9761;50.926;5.330;2022-11-24T01:26:39;8.80;99.90
19254;DHT22;9761;50.926;5.330;2022-11-24T01:29:06;8.80;99.90
19254;DHT22;9761;50.926;5.330;2022-11-24T01:31:34;8.70;99.90
19254;DHT22;9761;50.926;5.330;2022-11-24T01:34:02;8.70;99.90
19254;DHT22;9761;50.926;5.330;2022-11-24T01:36:29;8.70;99.90
19254;DHT22;9761;50.926;5.330;2022-11-24T01:38:56;8.70;99.90
19254;DHT22;9761;50.926;5.330;2022-11-24T01:41:24;8.70;99.90
19254;DHT22;9761;50.926;5.330;2022-11-24T01:43:52;8.70;99.90
19254;DHT22;9761;50.926;5.330;2022-11-24T01:46:22;8.70;99.90
19254;DHT22;9761;50.926;5.330;2022-11-24T01:48:57;8.70;99.90
19254;DHT22;9761;50.926;5.330;2022-11-24T01:51:29;8.70;99.90
19254;DHT22;9761;50.926;5.330;2022-11-24T01:54:03;8.70;99.90
19254;DHT22;9761;50.926;5.330;2022-11-24T01:56:32;8.70;99.90
19254;DHT22;9761;50.926;5.330;2022-11-24T01:59:02;8.70;99.90
19254;DHT22;9761;50.926;5.330;2022-11-24T02:01:31;8.80;99.90
19254;DHT22;9761;50.926;5.330;2022-11-24T02:04:00;8.80;99.90
19254;DHT22;9761;50.926;5.330;2022-11-24T02:06:31;8.80;99.90
19254;DHT22;9761;50.926;5.330;2022-11-24T02:09:02;8.90;99.90
19254;DHT22;9761;50.926;5.330;2022-11-24T02:11:33;8.90;99.90
19254;DHT22;9761;50.926;5.330;2022-11-24T02:14:03;8.90;99.90
19254;DHT22;9761;50.926;5.330;2022-11-24T02:16:31;8.80;99.90
19254;DHT22;9761;50.926;5.330;2022-11-24T02:19:02;8.80;99.90
19254;DHT22;9761;50.926;5.330;2022-11-24T02:21:30;8.80;99.90
19254;DHT22;9761;50.926;5.330;2022-11-24T02:24:02;8.80;99.90
19254;DHT22;9761;50.926;5.330;2022-11-24T02:26:38;8.80;99.90
19254;DHT22;9761;50.926;5.330;2022-11-24T02:29:06;8.80;99.90
19254;DHT22;9761;50.926;5.330;2022-11-24T02:31:34;8.90;99.90
19254;DHT22;9761;50.926;5.330;2022-11-24T02:34:01;8.90;99.90
19254;DHT22;9761;50.926;5.330;2022-11-24T02:36:28;8.80;99.90
19254;DHT22;9761;50.926;5.330;2022-11-24T02:38:55;8.90;99.90
19254;DHT22;9761;50.926;5.330;2022-11-24T02:41:24;8.90;99.90
19254;DHT22;9761;50.926;5.330;2022-11-24T02:43:55;8.80;99.90
19254;DHT22;9761;50.926;5.330;2022-11-24T02:46:22;8.80;99.90
19254;DHT22;9761;50.926;5.330;2022-11-24T02:48:49;8.80;99.90
19254;DHT22;9761;50.926;5.330;2022-11-24T02:51:16;8.70;99.90
19254;DHT22;9761;50.926;5.330;2022-11-24T02:53:44;8.70;99.90
19254;DHT22;9761;50.926;5.330;2022-11-24T02:56:11;8.80;99.90
19254;DHT22;9761;50.926;5.330;2022-11-24T02:58:38;8.80;99.90
19254;DHT22;9761;50.926;5.330;2022-11-24T03:01:06;8.80;99.90
19254;DHT22;9761;50.926;5.330;2022-11-24T03:03:33;8.80;99.90
19254;DHT22;9761;50.926;5.330;2022-11-24T03:06:00;8.80;99.90
19254;DHT22;9761;50.926;5.330;2022-11-24T03:08:27;8.70;99.90
19254;DHT22;9761;50.926;5.330;2022-11-24T03:10:54;8.70;99.90
19254;DHT22;9761;50.926;5.330;2022-11-24T03:13:21;8.70;99.90
19254;DHT22;9761;50.926;5.330;2022-11-24T03:15:47;8.70;99.90
19254;DHT22;9761;50.926;5.330;2022-11-24T03:18:16;8.80;99.90
19254;DHT22;9761;50.926;5.330;2022-11-24T03:20:43;8.80;99.90
19254;DHT22;9761;50.926;5.330;2022-11-24T03:23:10;8.80;99.90
19254;DHT22;9761;50.926;5.330;2022-11-24T03:25:36;8.80;99.90
19254;DHT22;9761;50.926;5.330;2022-11-24T03:28:04;8.80;99.90
19254;DHT22;9761;50.926;5.330;2022-11-24T03:30:31;8.80;99.90
19254;DHT22;9761;50.926;5.330;2022-11-24T03:32:58;8.90;99.90
19254;DHT22;9761;50.926;5.330;2022-11-24T03:35:26;9.00;99.90
19254;DHT22;9761;50.926;5.330;2022-11-24T03:37:54;9.00;99.90
19254;DHT22;9761;50.926;5.330;2022-11-24T03:40:20;9.00;99.90
19254;DHT22;9761;50.926;5.330;2022-11-24T03:42:47;9.10;99.90
19254;DHT22;9761;50.926;5.330;2022-11-24T03:45:14;9.20;99.90
19254;DHT22;9761;50.926;5.330;2022-11-24T03:47:41;9.20;99.90
19254;DHT22;9761;50.926;5.330;2022-11-24T03:50:08;9.30;99.90
19254;DHT22;9761;50.926;5.330;2022-11-24T03:52:36;9.30;99.90
19254;DHT22;9761;50.926;5.330;2022-11-24T03:55:04;9.30;99.90
19254;DHT22;9761;50.926;5.330;2022-11-24T03:57:31;9.30;99.90
19254;DHT22;9761;50.926;5.330;2022-11-24T03:59:58;9.40;99.90
19254;DHT22;9761;50.926;5.330;2022-11-24T04:02:25;9.30;99.90
19254;DHT22;9761;50.926;5.330;2022-11-24T04:04:52;9.30;99.90
19254;DHT22;9761;50.926;5.330;2022-11-24T04:07:19;9.30;99.90
19254;DHT22;9761;50.926;5.330;2022-11-24T04:09:47;9.30;99.90
19254;DHT22;9761;50.926;5.330;2022-11-24T04:12:14;9.20;99.90
19254;DHT22;9761;50.926;5.330;2022-11-24T04:14:58;9.20;99.90
19254;DHT22;9761;50.926;5.330;2022-11-24T04:17:25;9.20;99.90
19254;DHT22;9761;50.926;5.330;2022-11-24T04:19:53;9.20;99.90
19254;DHT22;9761;50.926;5.330;2022-11-24T04:22:20;9.20;99.90
19254;DHT22;9761;50.926;5.330;2022-11-24T04:24:48;9.20;99.90
19254;DHT22;9761;50.926;5.330;2022-11-24T04:27:15;9.30;99.90
19254;DHT22;9761;50.926;5.330;2022-11-24T04:29:42;9.30;99.90
19254;DHT22;9761;50.926;5.330;2022-11-24T04:32:10;9.30;99.90
19254;DHT22;9761;50.926;5.330;2022-11-24T04:34:37;9.30;99.90
19254;DHT22;9761;50.926;5.330;2022-11-24T04:37:04;9.30;99.90
19254;DHT22;9761;50.926;5.330;2022-11-24T04:39:32;9.20;99.90
19254;DHT22;9761;50.926;5.330;2022-11-24T04:42:00;9.20;99.90
19254;DHT22;9761;50.926;5.330;2022-11-24T04:44:27;9.20;99.90
19254;DHT22;9761;50.926;5.330;2022-11-24T04:46:54;9.10;99.90
19254;DHT22;9761;50.926;5.330;2022-11-24T04:49:20;9.00;99.90
19254;DHT22;9761;50.926;5.330;2022-11-24T04:51:47;9.10;99.90
19254;DHT22;9761;50.926;5.330;2022-11-24T04:54:15;9.00;99.90
19254;DHT22;9761;50.926;5.330;2022-11-24T04:56:42;9.00;99.90
19254;DHT22;9761;50.926;5.330;2022-11-24T04:59:13;9.00;99.90
19254;DHT22;9761;50.926;5.330;2022-11-24T05:01:40;9.00;99.90
19254;DHT22;9761;50.926;5.330;2022-11-24T05:04:08;9.00;99.90
19254;DHT22;9761;50.926;5.330;2022-11-24T05:06:36;9.00;99.90
19254;DHT22;9761;50.926;5.330;2022-11-24T05:09:04;8.90;99.90
19254;DHT22;9761;50.926;5.330;2022-11-24T05:11:33;8.90;99.90
19254;DHT22;9761;50.926;5.330;2022-11-24T05:14:00;8.80;99.90
19254;DHT22;9761;50.926;5.330;2022-11-24T05:16:29;8.80;99.90
19254;DHT22;9761;50.926;5.330;2022-11-24T05:18:55;8.70;99.90
19254;DHT22;9761;50.926;5.330;2022-11-24T05:21:22;8.70;99.90
19254;DHT22;9761;50.926;5.330;2022-11-24T05:23:49;8.60;99.90
19254;DHT22;9761;50.926;5.330;2022-11-24T05:26:16;8.60;99.90
19254;DHT22;9761;50.926;5.330;2022-11-24T05:28:43;8.50;99.90
19254;DHT22;9761;50.926;5.330;2022-11-24T05:31:10;8.50;99.90
19254;DHT22;9761;50.926;5.330;2022-11-24T05:33:38;8.40;99.90
19254;DHT22;9761;50.926;5.330;2022-11-24T05:36:06;8.40;99.90
19254;DHT22;9761;50.926;5.330;2022-11-24T05:38:53;8.30;99.90
19254;DHT22;9761;50.926;5.330;2022-11-24T05:41:20;8.20;99.90
19254;DHT22;9761;50.926;5.330;2022-11-24T05:43:47;8.20;99.90
19254;DHT22;9761;50.926;5.330;2022-11-24T05:46:14;8.10;99.90
19254;DHT22;9761;50.926;5.330;2022-11-24T05:48:42;8.10;99.90
19254;DHT22;9761;50.926;5.330;2022-11-24T05:51:09;8.00;99.90
19254;DHT22;9761;50.926;5.330;2022-11-24T05:53:36;7.90;99.90
19254;DHT22;9761;50.926;5.330;2022-11-24T05:56:03;7.90;99.90
19254;DHT22;9761;50.926;5.330;2022-11-24T05:58:30;7.90;99.90
19254;DHT22;9761;50.926;5.330;2022-11-24T06:00:57;7.90;99.90
19254;DHT22;9761;50.926;5.330;2022-11-24T06:03:24;7.90;99.90
19254;DHT22;9761;50.926;5.330;2022-11-24T06:05:52;7.80;99.90
19254;DHT22;9761;50.926;5.330;2022-11-24T06:08:19;7.80;99.90
19254;DHT22;9761;50.926;5.330;2022-11-24T06:10:46;7.70;99.90
19254;DHT22;9761;50.926;5.330;2022-11-24T06:13:13;7.80;99.90
19254;DHT22;9761;50.926;5.330;2022-11-24T06:15:40;7.80;99.90
19254;DHT22;9761;50.926;5.330;2022-11-24T06:18:07;7.90;99.90
19254;DHT22;9761;50.926;5.330;2022-11-24T06:20:34;7.90;99.90
19254;DHT22;9761;50.926;5.330;2022-11-24T06:23:02;7.90;99.90
19254;DHT22;9761;50.926;5.330;2022-11-24T06:25:29;8.00;99.90
19254;DHT22;9761;50.926;5.330;2022-11-24T06:27:56;8.10;99.90
19254;DHT22;9761;50.926;5.330;2022-11-24T06:30:23;8.00;99.90
19254;DHT22;9761;50.926;5.330;2022-11-24T06:32:53;8.10;99.90
19254;DHT22;9761;50.926;5.330;2022-11-24T06:35:20;8.10;99.90
19254;DHT22;9761;50.926;5.330;2022-11-24T06:37:47;8.10;99.90
19254;DHT22;9761;50.926;5.330;2022-11-24T06:40:16;8.00;99.90
19254;DHT22;9761;50.926;5.330;2022-11-24T06:42:48;7.90;99.90
19254;DHT22;9761;50.926;5.330;2022-11-24T06:45:15;8.00;99.90
19254;DHT22;9761;50.926;5.330;2022-11-24T06:47:42;8.00;99.90
19254;DHT22;9761;50.926;5.330;2022-11-24T06:50:11;8.00;99.90
19254;DHT22;9761;50.926;5.330;2022-11-24T06:52:38;8.00;99.90
19254;DHT22;9761;50.926;5.330;2022-11-24T06:55:06;8.00;99.90
19254;DHT22;9761;50.926;5.330;2022-11-24T06:57:34;8.00;99.90
19254;DHT22;9761;50.926;5.330;2022-11-24T07:00:02;7.90;99.90
19254;DHT22;9761;50.926;5.330;2022-11-24T07:02:29;8.00;99.90
19254;DHT22;9761;50.926;5.330;2022-11-24T07:04:56;8.00;99.90
19254;DHT22;9761;50.926;5.330;2022-11-24T07:07:23;8.00;99.90
19254;DHT22;9761;50.926;5.330;2022-11-24T07:09:49;7.90;99.90
19254;DHT22;9761;50.926;5.330;2022-11-24T07:12:16;7.90;99.90
19254;DHT22;9761;50.926;5.330;2022-11-24T07:14:45;7.90;99.90
19254;DHT22;9761;50.926;5.330;2022-11-24T07:17:12;7.80;99.90
19254;DHT22;9761;50.926;5.330;2022-11-24T07:19:39;7.80;99.90
19254;DHT22;9761;50.926;5.330;2022-11-24T07:22:06;7.80;99.90
19254;DHT22;9761;50.926;5.330;2022-11-24T07:24:33;7.80;99.90
19254;DHT22;9761;50.926;5.330;2022-11-24T07:27:00;7.80;99.90
19254;DHT22;9761;50.926;5.330;2022-11-24T07:29:27;7.80;99.90
19254;DHT22;9761;50.926;5.330;2022-11-24T07:31:55;7.80;99.90
19254;DHT22;9761;50.926;5.330;2022-11-24T07:34:22;7.80;99.90
19254;DHT22;9761;50.926;5.330;2022-11-24T07:36:49;7.80;99.90
19254;DHT22;9761;50.926;5.330;2022-11-24T07:39:16;7.80;99.90
19254;DHT22;9761;50.926;5.330;2022-11-24T07:41:43;7.80;99.90
19254;DHT22;9761;50.926;5.330;2022-11-24T07:44:10;7.80;99.90
19254;DHT22;9761;50.926;5.330;2022-11-24T07:46:37;7.80;99.90
19254;DHT22;9761;50.926;5.330;2022-11-24T07:49:05;7.90;99.90
19254;DHT22;9761;50.926;5.330;2022-11-24T07:51:32;8.00;99.90
19254;DHT22;9761;50.926;5.330;2022-11-24T07:54:01;7.90;99.90
19254;DHT22;9761;50.926;5.330;2022-11-24T07:56:28;7.90;99.90
19254;DHT22;9761;50.926;5.330;2022-11-24T07:58:55;7.90;99.90
19254;DHT22;9761;50.926;5.330;2022-11-24T08:01:22;7.90;99.90
19254;DHT22;9761;50.926;5.330;2022-11-24T08:03:49;8.00;99.90
19254;DHT22;9761;50.926;5.330;2022-11-24T08:06:18;8.00;99.90
19254;DHT22;9761;50.926;5.330;2022-11-24T08:08:45;8.00;99.90
19254;DHT22;9761;50.926;5.330;2022-11-24T08:11:14;8.00;99.90
19254;DHT22;9761;50.926;5.330;2022-11-24T08:13:42;8.10;99.90
19254;DHT22;9761;50.926;5.330;2022-11-24T08:16:10;8.10;99.90
19254;DHT22;9761;50.926;5.330;2022-11-24T08:18:38;8.10;99.90
19254;DHT22;9761;50.926;5.330;2022-11-24T08:21:05;8.10;99.90
19254;DHT22;9761;50.926;5.330;2022-11-24T08:23:34;8.10;99.90
19254;DHT22;9761;50.926;5.330;2022-11-24T08:26:03;8.10;99.90
19254;DHT22;9761;50.926;5.330;2022-11-24T08:28:32;8.10;99.90
19254;DHT22;9761;50.926;5.330;2022-11-24T08:31:03;8.10;99.90
19254;DHT22;9761;50.926;5.330;2022-11-24T08:33:31;8.10;99.90
19254;DHT22;9761;50.926;5.330;2022-11-24T08:36:02;8.10;99.90
19254;DHT22;9761;50.926;5.330;2022-11-24T08:38:29;8.10;99.90
19254;DHT22;9761;50.926;5.330;2022-11-24T08:41:01;8.20;99.90
19254;DHT22;9761;50.926;5.330;2022-11-24T08:43:28;8.20;99.90
19254;DHT22;9761;50.926;5.330;2022-11-24T08:45:58;8.20;99.90
19254;DHT22;9761;50.926;5.330;2022-11-24T08:48:26;8.20;99.90
19254;DHT22;9761;50.926;5.330;2022-11-24T08:50:53;8.30;99.90
19254;DHT22;9761;50.926;5.330;2022-11-24T08:53:21;8.40;99.90
19254;DHT22;9761;50.926;5.330;2022-11-24T08:55:48;8.40;99.90
19254;DHT22;9761;50.926;5.330;2022-11-24T08:58:17;8.40;99.90
19254;DHT22;9761;50.926;5.330;2022-11-24T09:00:44;8.50;99.90
19254;DHT22;9761;50.926;5.330;2022-11-24T09:03:11;8.50;99.90
19254;DHT22;9761;50.926;5.330;2022-11-24T09:05:38;8.40;99.90
19254;DHT22;9761;50.926;5.330;2022-11-24T09:08:06;8.50;99.90
19254;DHT22;9761;50.926;5.330;2022-11-24T09:10:35;8.60;99.90
19254;DHT22;9761;50.926;5.330;2022-11-24T09:13:02;8.60;99.90
19254;DHT22;9761;50.926;5.330;2022-11-24T09:15:30;8.60;99.90
19254;DHT22;9761;50.926;5.330;2022-11-24T09:17:57;8.70;99.90
19254;DHT22;9761;50.926;5.330;2022-11-24T09:20:24;8.70;99.90
19254;DHT22;9761;50.926;5.330;2022-11-24T09:22:51;8.70;99.90
19254;DHT22;9761;50.926;5.330;2022-11-24T09:25:18;8.80;99.90
19254;DHT22;9761;50.926;5.330;2022-11-24T09:27:45;8.80;99.90
19254;DHT22;9761;50.926;5.330;2022-11-24T09:30:13;8.90;99.90
19254;DHT22;9761;50.926;5.330;2022-11-24T09:32:41;8.90;99.90
19254;DHT22;9761;50.926;5.330;2022-11-24T09:35:08;9.00;99.90
19254;DHT22;9761;50.926;5.330;2022-11-24T09:37:35;9.00;99.90
19254;DHT22;9761;50.926;5.330;2022-11-24T09:40:02;9.10;99.90
19254;DHT22;9761;50.926;5.330;2022-11-24T09:42:36;9.10;99.90
19254;DHT22;9761;50.926;5.330;2022-11-24T09:45:18;9.20;99.90
19254;DHT22;9761;50.926;5.330;2022-11-24T09:48:09;9.30;99.90
19254;DHT22;9761;50.926;5.330;2022-11-24T09:50:38;9.30;99.90
19254;DHT22;9761;50.926;5.330;2022-11-24T09:53:09;9.30;99.90
19254;DHT22;9761;50.926;5.330;2022-11-24T09:55:41;9.40;99.90
19254;DHT22;9761;50.926;5.330;2022-11-24T09:58:23;9.30;99.90
19254;DHT22;9761;50.926;5.330;2022-11-24T10:00:56;9.30;99.90
19254;DHT22;9761;50.926;5.330;2022-11-24T10:03:28;9.30;99.90
19254;DHT22;9761;50.926;5.330;2022-11-24T10:05:58;9.40;99.90
19254;DHT22;9761;50.926;5.330;2022-11-24T10:08:39;9.40;99.90
19254;DHT22;9761;50.926;5.330;2022-11-24T10:11:12;9.40;99.90
19254;DHT22;9761;50.926;5.330;2022-11-24T10:13:59;9.50;99.90
19254;DHT22;9761;50.926;5.330;2022-11-24T10:16:38;9.50;99.90
19254;DHT22;9761;50.926;5.330;2022-11-24T10:19:17;9.60;99.90
19254;DHT22;9761;50.926;5.330;2022-11-24T10:21:56;9.70;99.90
19254;DHT22;9761;50.926;5.330;2022-11-24T10:24:39;9.70;99.90
19254;DHT22;9761;50.926;5.330;2022-11-24T10:27:15;9.80;99.90
19254;DHT22;9761;50.926;5.330;2022-11-24T10:29:43;9.80;99.90
19254;DHT22;9761;50.926;5.330;2022-11-24T10:32:15;9.80;99.90
19254;DHT22;9761;50.926;5.330;2022-11-24T10:34:46;9.80;99.90
19254;DHT22;9761;50.926;5.330;2022-11-24T10:37:18;9.90;99.90
19254;DHT22;9761;50.926;5.330;2022-11-24T10:39:53;9.90;99.90
19254;DHT22;9761;50.926;5.330;2022-11-24T10:42:25;9.90;99.90
19254;DHT22;9761;50.926;5.330;2022-11-24T10:45:00;10.00;99.90
19254;DHT22;9761;50.926;5.330;2022-11-24T10:47:27;10.10;99.90
19254;DHT22;9761;50.926;5.330;2022-11-24T10:50:00;10.10;99.90
19254;DHT22;9761;50.926;5.330;2022-11-24T10:52:28;10.20;99.90
19254;DHT22;9761;50.926;5.330;2022-11-24T10:54:58;10.10;99.90
19254;DHT22;9761;50.926;5.330;2022-11-24T10:57:27;10.20;99.90
19254;DHT22;9761;50.926;5.330;2022-11-24T10:59:54;10.20;99.90
19254;DHT22;9761;50.926;5.330;2022-11-24T11:02:35;10.30;99.90
19254;DHT22;9761;50.926;5.330;2022-11-24T11:05:30;10.30;99.90
19254;DHT22;9761;50.926;5.330;2022-11-24T11:08:17;10.40;99.90
19254;DHT22;9761;50.926;5.330;2022-11-24T11:10:46;10.40;99.90
19254;DHT22;9761;50.926;5.330;2022-11-24T11:13:25;10.40;99.90
19254;DHT22;9761;50.926;5.330;2022-11-24T11:15:53;10.50;99.90
19254;DHT22;9761;50.926;5.330;2022-11-24T11:18:20;10.60;99.90
19254;DHT22;9761;50.926;5.330;2022-11-24T11:20:51;10.60;99.90
19254;DHT22;9761;50.926;5.330;2022-11-24T11:23:25;10.70;99.90
19254;DHT22;9761;50.926;5.330;2022-11-24T11:26:17;10.70;99.90
19254;DHT22;9761;50.926;5.330;2022-11-24T11:29:00;10.70;99.90
19254;DHT22;9761;50.926;5.330;2022-11-24T11:31:28;10.70;99.90
19254;DHT22;9761;50.926;5.330;2022-11-24T11:33:59;10.80;99.90
19254;DHT22;9761;50.926;5.330;2022-11-24T11:36:28;10.90;99.90
19254;DHT22;9761;50.926;5.330;2022-11-24T11:38:56;10.90;99.90
19254;DHT22;9761;50.926;5.330;2022-11-24T11:41:29;10.90;99.90
19254;DHT22;9761;50.926;5.330;2022-11-24T11:44:04;10.90;99.90
19254;DHT22;9761;50.926;5.330;2022-11-24T11:46:34;10.90;99.90
19254;DHT22;9761;50.926;5.330;2022-11-24T11:49:01;10.90;99.90
19254;DHT22;9761;50.926;5.330;2022-11-24T11:51:42;10.90;99.90
19254;DHT22;9761;50.926;5.330;2022-11-24T11:54:18;11.00;99.90
19254;DHT22;9761;50.926;5.330;2022-11-24T11:56:49;11.10;99.90
19254;DHT22;9761;50.926;5.330;2022-11-24T11:59:43;11.00;99.90
19254;DHT22;9761;50.926;5.330;2022-11-24T12:05:15;11.10;99.90
19254;DHT22;9761;50.926;5.330;2022-11-24T12:07:59;11.20;99.90
19254;DHT22;9761;50.926;5.330;2022-11-24T12:10:36;11.20;99.90
19254;DHT22;9761;50.926;5.330;2022-11-24T12:13:17;11.20;99.90
19254;DHT22;9761;50.926;5.330;2022-11-24T12:15:55;11.20;99.90
19254;DHT22;9761;50.926;5.330;2022-11-24T12:18:27;11.10;99.90
19254;DHT22;9761;50.926;5.330;2022-11-24T12:21:06;11.20;99.90
19254;DHT22;9761;50.926;5.330;2022-11-24T12:24:01;11.10;99.90
19254;DHT22;9761;50.926;5.330;2022-11-24T12:26:36;11.10;99.90
19254;DHT22;9761;50.926;5.330;2022-11-24T12:29:29;11.30;99.90
19254;DHT22;9761;50.926;5.330;2022-11-24T12:32:08;11.30;99.90
19254;DHT22;9761;50.926;5.330;2022-11-24T12:34:47;11.20;99.90
19254;DHT22;9761;50.926;5.330;2022-11-24T12:37:25;11.20;99.90
19254;DHT22;9761;50.926;5.330;2022-11-24T12:40:04;11.40;99.90
19254;DHT22;9761;50.926;5.330;2022-11-24T12:42:41;11.40;99.90
19254;DHT22;9761;50.926;5.330;2022-11-24T12:45:14;11.40;99.90
19254;DHT22;9761;50.926;5.330;2022-11-24T12:48:02;11.60;99.90
19254;DHT22;9761;50.926;5.330;2022-11-24T12:50:35;11.60;99.90
19254;DHT22;9761;50.926;5.330;2022-11-24T12:53:04;11.50;99.90
19254;DHT22;9761;50.926;5.330;2022-11-24T12:55:37;11.60;99.90
19254;DHT22;9761;50.926;5.330;2022-11-24T12:58:12;11.60;99.90
19254;DHT22;9761;50.926;5.330;2022-11-24T13:00:52;11.70;99.90
19254;DHT22;9761;50.926;5.330;2022-11-24T13:03:29;11.70;99.90
19254;DHT22;9761;50.926;5.330;2022-11-24T13:06:02;11.70;99.90
19254;DHT22;9761;50.926;5.330;2022-11-24T13:08:30;11.60;99.90
19254;DHT22;9761;50.926;5.330;2022-11-24T13:13:59;11.60;99.90
19254;DHT22;9761;50.926;5.330;2022-11-24T13:16:27;11.60;99.90
19254;DHT22;9761;50.926;5.330;2022-11-24T13:18:56;11.60;99.90
19254;DHT22;9761;50.926;5.330;2022-11-24T13:21:44;11.60;99.90
19254;DHT22;9761;50.926;5.330;2022-11-24T13:24:22;11.60;99.90
19254;DHT22;9761;50.926;5.330;2022-11-24T13:26:51;11.60;99.90
19254;DHT22;9761;50.926;5.330;2022-11-24T13:29:35;11.60;99.90
19254;DHT22;9761;50.926;5.330;2022-11-24T13:35:17;11.70;99.90
19254;DHT22;9761;50.926;5.330;2022-11-24T13:37:47;11.70;99.90
19254;DHT22;9761;50.926;5.330;2022-11-24T13:40:36;11.80;99.90
19254;DHT22;9761;50.926;5.330;2022-11-24T13:43:21;11.80;99.90
19254;DHT22;9761;50.926;5.330;2022-11-24T13:45:51;11.80;99.90
19254;DHT22;9761;50.926;5.330;2022-11-24T13:48:57;11.90;99.90
19254;DHT22;9761;50.926;5.330;2022-11-24T13:51:25;11.90;99.90
19254;DHT22;9761;50.926;5.330;2022-11-24T13:53:54;11.80;99.90
19254;DHT22;9761;50.926;5.330;2022-11-24T13:56:32;11.90;99.90
19254;DHT22;9761;50.926;5.330;2022-11-24T13:59:01;11.90;99.90
19254;DHT22;9761;50.926;5.330;2022-11-24T14:01:41;11.90;99.90
19254;DHT22;9761;50.926;5.330;2022-11-24T14:04:18;11.80;99.90
19254;DHT22;9761;50.926;5.330;2022-11-24T14:06:52;11.70;99.90
19254;DHT22;9761;50.926;5.330;2022-11-24T14:09:26;11.60;99.90
19254;DHT22;9761;50.926;5.330;2022-11-24T14:12:05;11.50;99.90
19254;DHT22;9761;50.926;5.330;2022-11-24T14:14:33;11.50;99.90
19254;DHT22;9761;50.926;5.330;2022-11-24T14:17:16;11.40;99.90
19254;DHT22;9761;50.926;5.330;2022-11-24T14:19:46;11.40;99.90
19254;DHT22;9761;50.926;5.330;2022-11-24T14:22:15;11.30;99.90
19254;DHT22;9761;50.926;5.330;2022-11-24T14:24:44;11.20;99.90
19254;DHT22;9761;50.926;5.330;2022-11-24T14:27:17;11.20;99.90
19254;DHT22;9761;50.926;5.330;2022-11-24T14:29:56;11.20;99.90
19254;DHT22;9761;50.926;5.330;2022-11-24T14:32:25;11.10;99.90
19254;DHT22;9761;50.926;5.330;2022-11-24T14:34:52;11.10;99.90
19254;DHT22;9761;50.926;5.330;2022-11-24T14:37:20;11.00;99.90
19254;DHT22;9761;50.926;5.330;2022-11-24T14:39:47;11.10;99.90
19254;DHT22;9761;50.926;5.330;2022-11-24T14:42:19;11.10;99.90
19254;DHT22;9761;50.926;5.330;2022-11-24T14:44:49;11.20;99.90
19254;DHT22;9761;50.926;5.330;2022-11-24T14:47:22;11.10;99.90
19254;DHT22;9761;50.926;5.330;2022-11-24T14:49:55;10.90;99.90
19254;DHT22;9761;50.926;5.330;2022-11-24T14:52:23;10.90;99.90
19254;DHT22;9761;50.926;5.330;2022-11-24T14:54:53;10.90;99.90
19254;DHT22;9761;50.926;5.330;2022-11-24T14:57:24;10.80;99.90
19254;DHT22;9761;50.926;5.330;2022-11-24T15:00:06;10.80;99.90
19254;DHT22;9761;50.926;5.330;2022-11-24T15:02:38;10.60;99.90
19254;DHT22;9761;50.926;5.330;2022-11-24T15:05:10;10.60;99.90
19254;DHT22;9761;50.926;5.330;2022-11-24T15:07:39;10.50;99.90
19254;DHT22;9761;50.926;5.330;2022-11-24T15:10:19;10.50;99.90
19254;DHT22;9761;50.926;5.330;2022-11-24T15:12:52;10.40;99.90
19254;DHT22;9761;50.926;5.330;2022-11-24T15:15:22;10.40;99.90
19254;DHT22;9761;50.926;5.330;2022-11-24T15:17:53;10.30;99.90
19254;DHT22;9761;50.926;5.330;2022-11-24T15:20:25;10.30;99.90
19254;DHT22;9761;50.926;5.330;2022-11-24T15:23:12;10.30;99.90
19254;DHT22;9761;50.926;5.330;2022-11-24T15:25:44;10.20;99.90
19254;DHT22;9761;50.926;5.330;2022-11-24T15:28:11;10.20;99.90
19254;DHT22;9761;50.926;5.330;2022-11-24T15:30:38;10.20;99.90
19254;DHT22;9761;50.926;5.330;2022-11-24T15:33:12;10.10;99.90
19254;DHT22;9761;50.926;5.330;2022-11-24T15:35:41;10.00;99.90
19254;DHT22;9761;50.926;5.330;2022-11-24T15:38:08;10.00;99.90
19254;DHT22;9761;50.926;5.330;2022-11-24T15:40:36;9.90;99.90
19254;DHT22;9761;50.926;5.330;2022-11-24T15:43:21;9.90;99.90
19254;DHT22;9761;50.926;5.330;2022-11-24T15:45:51;9.80;99.90
19254;DHT22;9761;50.926;5.330;2022-11-24T15:48:18;9.80;99.90
19254;DHT22;9761;50.926;5.330;2022-11-24T15:50:47;9.80;99.90
19254;DHT22;9761;50.926;5.330;2022-11-24T15:53:17;9.70;99.90
19254;DHT22;9761;50.926;5.330;2022-11-24T15:55:46;9.70;99.90
19254;DHT22;9761;50.926;5.330;2022-11-24T15:58:14;9.60;99.90
19254;DHT22;9761;50.926;5.330;2022-11-24T16:00:41;9.60;99.90
19254;DHT22;9761;50.926;5.330;2022-11-24T16:03:09;9.50;99.90
19254;DHT22;9761;50.926;5.330;2022-11-24T16:05:38;9.50;99.90
19254;DHT22;9761;50.926;5.330;2022-11-24T16:08:11;9.40;99.90
19254;DHT22;9761;50.926;5.330;2022-11-24T16:10:39;9.50;99.90
19254;DHT22;9761;50.926;5.330;2022-11-24T16:13:06;9.40;99.90
19254;DHT22;9761;50.926;5.330;2022-11-24T16:15:37;9.40;99.90
19254;DHT22;9761;50.926;5.330;2022-11-24T16:18:04;9.50;99.90
19254;DHT22;9761;50.926;5.330;2022-11-24T16:20:33;9.40;99.90
19254;DHT22;9761;50.926;5.330;2022-11-24T16:23:07;9.40;99.90
19254;DHT22;9761;50.926;5.330;2022-11-24T16:25:35;9.40;99.90